Terminal Aerodrome Forecast
Issued by NWS

Home | Current Version | Previous Version | Text Only | Print | Product List | Glossary On
Versions: 1 2 3 4 5 6 7 8 9 10 11 12 13 14 15 16
751
FTUS45 KGGW 281124
TAFSDY
TAF
KSDY 281124Z 2812/0112 04006KT P6SM OVC025
     FM281500 14007KT P6SM BKN015
     FM282200 17007KT P6SM VCSH OVC020
     FM010300 26006KT P6SM VCSH OVC020
     FM010500 31008KT P6SM OVC020=

USA.gov is the U.S. government's official web portal to all federal, state and local government web resources and services.